createdAt,value
2022-11-06T00:00:26.578Z,98231.91
2022-11-06T00:03:28.427Z,98227.50
2022-11-06T00:06:48.803Z,98217.03
2022-11-06T00:09:50.622Z,98218.97
2022-11-06T00:12:52.575Z,98225.84
2022-11-06T00:15:54.557Z,98232.88
2022-11-06T00:18:56.404Z,98233.28
2022-11-06T00:21:58.261Z,98228.19
2022-11-06T00:25:00.376Z,98231.53
2022-11-06T00:28:02.221Z,98239.75
2022-11-06T00:31:11.187Z,98237.34
2022-11-06T00:34:12.956Z,98224.41
2022-11-06T00:37:14.922Z,98232.94
2022-11-06T00:40:16.930Z,98227.72
2022-11-06T00:43:18.826Z,98232.03
2022-11-06T00:46:20.869Z,98232.94
2022-11-06T00:49:22.928Z,98228.47
2022-11-06T00:52:24.768Z,98228.56
2022-11-06T00:55:26.583Z,98228.47
2022-11-06T00:58:28.374Z,98227.50
2022-11-06T01:01:39.186Z,98231.56
2022-11-06T01:04:41.076Z,98229.66
2022-11-06T01:07:42.874Z,98231.06
2022-11-06T01:10:44.579Z,98231.31
2022-11-06T01:13:49.550Z,98242.03
2022-11-06T01:16:51.821Z,98240.94
2022-11-06T01:19:53.753Z,98243.00
2022-11-06T01:22:55.558Z,98246.16
2022-11-06T01:25:59.337Z,98239.03
2022-11-06T01:29:01.130Z,98241.53
2022-11-06T01:32:03.212Z,98238.09
2022-11-06T01:35:05.245Z,98240.72
2022-11-06T01:38:07.027Z,98241.19
2022-11-06T01:41:09.188Z,98231.81
2022-11-06T01:44:36.082Z,98234.31
2022-11-06T01:47:38.115Z,98231.81
2022-11-06T01:50:42.267Z,98228.38
2022-11-06T01:53:44.103Z,98233.59
2022-11-06T01:56:48.190Z,98230.69
2022-11-06T01:59:51.105Z,98221.19
2022-11-06T02:02:53.103Z,98225.72
2022-11-06T02:05:55.154Z,98231.00
2022-11-06T02:08:56.913Z,98228.22
2022-11-06T02:12:19.312Z,98229.31
2022-11-06T02:15:29.598Z,98225.06
2022-11-06T02:18:45.019Z,98230.44
2022-11-06T02:22:10.318Z,98225.19
2022-11-06T02:25:21.329Z,98228.53
2022-11-06T02:28:39.374Z,98227.00
2022-11-06T02:31:42.679Z,98219.72
2022-11-06T02:34:44.912Z,98226.31
2022-11-06T02:37:47.685Z,98226.59
2022-11-06T02:40:55.597Z,98224.22
2022-11-06T02:43:57.685Z,98223.41
2022-11-06T02:47:03.643Z,98224.38
2022-11-06T02:50:11.394Z,98232.06
2022-11-06T02:53:14.928Z,98220.41
2022-11-06T02:56:21.023Z,98224.78
2022-11-06T02:59:32.225Z,98218.31
2022-11-06T03:02:38.222Z,98228.63
2022-11-06T03:05:45.301Z,98217.22
2022-11-06T03:09:03.252Z,98227.09
2022-11-06T03:12:30.146Z,98232.59
2022-11-06T03:15:39.109Z,98230.13
2022-11-06T03:18:50.122Z,98234.84
2022-11-06T03:22:13.072Z,98237.81
2022-11-06T03:25:28.480Z,98248.94
2022-11-06T03:28:36.394Z,98251.91
2022-11-06T03:31:49.985Z,98251.50
2022-11-06T03:35:11.877Z,98258.50
2022-11-06T03:38:31.252Z,98260.44
2022-11-06T03:41:44.198Z,98252.59
2022-11-06T03:44:48.836Z,98259.03
2022-11-06T03:48:15.603Z,98255.16
2022-11-06T03:51:48.442Z,98258.84
2022-11-06T03:54:55.634Z,98252.38
2022-11-06T03:57:57.829Z,98253.47
2022-11-06T04:01:04.308Z,98255.66
2022-11-06T04:04:10.071Z,98256.06
2022-11-06T04:07:36.842Z,98257.44
2022-11-06T04:11:00.821Z,98258.31
2022-11-06T04:14:05.550Z,98269.63
2022-11-06T04:17:10.820Z,98271.03
2022-11-06T04:20:35.880Z,98269.38
2022-11-06T04:24:09.548Z,98269.63
2022-11-06T04:27:33.631Z,98277.47
2022-11-06T04:30:44.375Z,98281.28
2022-11-06T04:33:56.657Z,98266.88
2022-11-06T04:37:12.068Z,98278.16
2022-11-06T04:40:37.198Z,98289.84
2022-11-06T04:43:44.651Z,98279.38
2022-11-06T04:46:54.976Z,98277.34
2022-11-06T04:49:59.199Z,98278.16
2022-11-06T04:53:02.406Z,98281.75
2022-11-06T04:56:11.090Z,98284.94
2022-11-06T04:59:15.907Z,98285.31
2022-11-06T05:02:18.028Z,98287.53
2022-11-06T05:05:19.870Z,98293.53
2022-11-06T05:08:22.230Z,98297.94
2022-11-06T05:11:24.026Z,98294.34
2022-11-06T05:14:25.694Z,98297.22
2022-11-06T05:17:29.686Z,98297.94
2022-11-06T05:20:33.575Z,98298.91
2022-11-06T05:23:35.693Z,98295.72
2022-11-06T05:26:37.703Z,98300.78
2022-11-06T05:29:39.578Z,98292.69
2022-11-06T05:32:43.068Z,98290.22
2022-11-06T05:35:44.741Z,98289.13
2022-11-06T05:38:46.579Z,98297.59
2022-11-06T05:41:49.038Z,98293.19
2022-11-06T05:44:51.805Z,98295.47
2022-11-06T05:47:54.175Z,98293.59
2022-11-06T05:51:08.651Z,98288.22
2022-11-06T05:54:10.742Z,98284.22
2022-11-06T05:57:12.878Z,98289.69
2022-11-06T06:00:15.260Z,98301.78
2022-11-06T06:03:17.994Z,98309.31
2022-11-06T06:06:21.148Z,98322.75
2022-11-06T06:09:25.918Z,98302.50
2022-11-06T06:12:27.985Z,98310.84
2022-11-06T06:15:30.119Z,98313.47
2022-11-06T06:18:31.991Z,98315.06
2022-11-06T06:21:33.955Z,98319.59
2022-11-06T06:24:35.842Z,98328.00
2022-11-06T06:27:37.974Z,98331.13
2022-11-06T06:30:40.334Z,98334.91
2022-11-06T06:33:42.081Z,98332.31
2022-11-06T06:36:44.029Z,98323.81
2022-11-06T06:39:46.271Z,98323.81
2022-11-06T06:42:48.064Z,98330.13
2022-11-06T06:45:50.268Z,98330.25
2022-11-06T06:48:52.165Z,98338.69
2022-11-06T06:51:53.927Z,98330.91
2022-11-06T06:54:57.030Z,98327.25
2022-11-06T06:58:00.177Z,98326.19
2022-11-06T07:01:04.646Z,98329.38
2022-11-06T07:04:06.908Z,98332.13
2022-11-06T07:07:09.087Z,98328.97
2022-11-06T07:10:11.589Z,98334.69
2022-11-06T07:13:13.925Z,98330.66
2022-11-06T07:16:16.271Z,98333.41
2022-11-06T07:19:18.466Z,98323.13
2022-11-06T07:22:29.580Z,98325.56
2022-11-06T07:25:35.493Z,98329.06
2022-11-06T07:28:37.927Z,98324.50
2022-11-06T07:31:40.580Z,98330.34
2022-11-06T07:34:42.526Z,98327.88
2022-11-06T07:37:45.873Z,98319.97
2022-11-06T07:40:48.127Z,98317.69
2022-11-06T07:43:50.562Z,98320.25
2022-11-06T07:46:52.421Z,98308.75
2022-11-06T07:49:54.505Z,98316.03
2022-11-06T07:52:57.147Z,98312.47
2022-11-06T07:56:00.004Z,98314.53
2022-11-06T07:59:02.377Z,98302.00
2022-11-06T08:02:04.444Z,98299.09
2022-11-06T08:05:06.646Z,98303.78
2022-11-06T08:08:09.051Z,98300.47
2022-11-06T08:11:11.964Z,98293.47
2022-11-06T08:14:14.718Z,98294.84
2022-11-06T08:17:17.265Z,98300.94
2022-11-06T08:20:19.928Z,98297.75
2022-11-06T08:23:21.858Z,98298.75
2022-11-06T08:26:23.974Z,98300.84
2022-11-06T08:29:26.446Z,98302.22
2022-11-06T08:32:29.494Z,98296.03
2022-11-06T08:35:32.032Z,98292.44
2022-11-06T08:38:34.188Z,98289.94
2022-11-06T08:41:36.995Z,98285.22
2022-11-06T08:44:43.774Z,98279.31
2022-11-06T08:47:46.643Z,98280.16
2022-11-06T08:50:49.669Z,98274.75
2022-11-06T08:53:53.873Z,98280.16
2022-11-06T08:56:59.081Z,98281.50
2022-11-06T09:00:01.564Z,98285.38
2022-11-06T09:03:06.931Z,98284.97
2022-11-06T09:06:10.013Z,98285.50
2022-11-06T09:09:12.363Z,98282.88
2022-11-06T09:12:14.884Z,98282.88
2022-11-06T09:15:17.565Z,98284.56
2022-11-06T09:18:19.627Z,98286.91
2022-11-06T09:21:23.502Z,98287.47
2022-11-06T09:24:49.567Z,98288.97
2022-11-06T09:27:55.673Z,98284.00
2022-11-06T09:31:02.637Z,98284.13
2022-11-06T09:34:07.418Z,98281.75
2022-11-06T09:37:09.838Z,98287.94
2022-11-06T09:40:21.575Z,98280.88
2022-11-06T09:44:05.564Z,98278.09
2022-11-06T09:47:15.078Z,98277.63
2022-11-06T09:50:22.419Z,98278.84
2022-11-06T09:53:41.856Z,98272.09
2022-11-06T09:56:49.765Z,98279.03
2022-11-06T09:59:52.660Z,98274.78
2022-11-06T10:03:07.990Z,98270.81
2022-11-06T10:06:13.177Z,98271.59
2022-11-06T10:09:17.929Z,98271.09
2022-11-06T10:12:54.045Z,98270.22
2022-11-06T10:16:32.040Z,98264.88
2022-11-06T10:19:42.689Z,98266.41
2022-11-06T10:23:06.430Z,98259.50
2022-11-06T10:26:20.968Z,98265.13
2022-11-06T10:30:08.956Z,98258.16
2022-11-06T10:33:49.985Z,98254.63
2022-11-06T10:36:55.658Z,98248.16
2022-11-06T10:39:58.600Z,98251.00
2022-11-06T10:43:25.260Z,98240.28
2022-11-06T10:46:30.102Z,98241.13
2022-11-06T10:49:46.970Z,98239.69
2022-11-06T10:53:08.769Z,98238.41
2022-11-06T10:56:35.059Z,98240.88
2022-11-06T10:59:37.479Z,98237.19
2022-11-06T11:03:01.769Z,98236.53
2022-11-06T11:06:13.345Z,98234.44
2022-11-06T11:09:35.302Z,98228.50
2022-11-06T11:16:18.636Z,98214.13
2022-11-06T11:19:39.302Z,98219.41
2022-11-06T11:22:41.544Z,98216.31
2022-11-06T11:25:47.029Z,98213.31
2022-11-06T11:28:58.609Z,98213.31
2022-11-06T11:32:03.803Z,98215.94
2022-11-06T11:35:09.515Z,98214.53
2022-11-06T11:38:15.022Z,98206.34
2022-11-06T11:41:20.428Z,98211.28
2022-11-06T11:44:22.588Z,98206.03
2022-11-06T11:47:24.840Z,98206.03
2022-11-06T11:50:33.201Z,98214.75
2022-11-06T11:53:35.447Z,98203.31
2022-11-06T12:00:17.019Z,98207.78
2022-11-06T12:03:19.757Z,98204.63
2022-11-06T12:06:21.719Z,98200.72
2022-11-06T12:09:24.150Z,98202.44
2022-11-06T12:12:35.467Z,98202.44
2022-11-06T12:15:57.013Z,98199.13
2022-11-06T12:18:59.319Z,98199.28
2022-11-06T12:22:06.078Z,98190.41
2022-11-06T12:25:20.017Z,98189.75
2022-11-06T12:28:22.894Z,98186.66
2022-11-06T12:31:45.463Z,98185.13
2022-11-06T12:35:14.087Z,98176.72
2022-11-06T12:38:37.930Z,98175.09
2022-11-06T12:41:43.894Z,98180.91
2022-11-06T12:44:47.565Z,98170.56
2022-11-06T12:47:57.354Z,98174.75
2022-11-06T12:50:59.340Z,98172.19
2022-11-06T12:54:19.864Z,98170.25
2022-11-06T12:57:40.568Z,98180.22
2022-11-06T13:01:30.281Z,98174.81
2022-11-06T13:04:47.800Z,98179.13
2022-11-06T13:07:52.531Z,98179.13
2022-11-06T13:11:04.556Z,98174.94
2022-11-06T13:14:17.122Z,98176.38
2022-11-06T13:17:27.580Z,98177.13
2022-11-06T13:20:37.337Z,98176.97
2022-11-06T13:23:51.583Z,98170.97
2022-11-06T13:27:00.076Z,98165.41
2022-11-06T13:30:22.767Z,98168.94
2022-11-06T13:33:26.251Z,98176.38
2022-11-06T13:36:29.549Z,98169.69
2022-11-06T13:39:41.258Z,98164.19
2022-11-06T13:42:48.720Z,98160.72
2022-11-06T13:45:53.856Z,98161.94
2022-11-06T13:49:05.482Z,98161.28
2022-11-06T13:52:21.627Z,98163.69
2022-11-06T13:55:38.490Z,98165.19
2022-11-06T13:58:57.519Z,98162.25
2022-11-06T14:02:21.386Z,98159.38
2022-11-06T14:05:51.372Z,98152.38
2022-11-06T14:09:06.807Z,98151.78
2022-11-06T14:12:15.666Z,98144.75
2022-11-06T14:15:34.937Z,98136.19
2022-11-06T14:18:36.966Z,98149.50
2022-11-06T14:21:42.936Z,98152.16
2022-11-06T14:24:44.911Z,98144.19
2022-11-06T14:27:49.761Z,98147.44
2022-11-06T14:31:11.704Z,98150.69
2022-11-06T14:34:34.229Z,98151.88
2022-11-06T14:37:42.560Z,98147.31
2022-11-06T14:40:44.674Z,98140.13
2022-11-06T14:43:50.148Z,98144.19
2022-11-06T14:46:55.085Z,98134.34
2022-11-06T14:49:59.648Z,98141.75
2022-11-06T14:53:05.364Z,98142.69
2022-11-06T14:56:11.313Z,98141.72
2022-11-06T14:59:20.950Z,98134.97
2022-11-06T15:02:25.641Z,98132.28
2022-11-06T15:05:27.709Z,98135.81
2022-11-06T15:08:51.498Z,98134.59
2022-11-06T15:11:54.956Z,98131.97
2022-11-06T15:15:01.199Z,98131.44
2022-11-06T15:18:04.583Z,98129.22
2022-11-06T15:21:08.956Z,98131.66
2022-11-06T15:24:32.183Z,98127.50
2022-11-06T15:27:45.879Z,98129.47
2022-11-06T15:30:50.610Z,98126.78
2022-11-06T15:34:02.975Z,98125.66
2022-11-06T15:37:23.869Z,98122.41
2022-11-06T15:40:33.902Z,98120.00
2022-11-06T15:43:37.673Z,98127.06
2022-11-06T15:46:53.008Z,98122.78
2022-11-06T15:50:20.811Z,98124.44
2022-11-06T15:53:27.365Z,98131.84
2022-11-06T15:56:34.989Z,98121.53
2022-11-06T15:59:37.120Z,98125.84
2022-11-06T16:02:57.838Z,98121.84
2022-11-06T16:06:02.171Z,98129.53
2022-11-06T16:09:04.965Z,98128.09
2022-11-06T16:12:08.015Z,98130.25
2022-11-06T16:15:48.815Z,98127.97
2022-11-06T16:18:50.989Z,98131.34
2022-11-06T16:22:14.828Z,98132.16
2022-11-06T16:25:20.151Z,98125.78
2022-11-06T16:28:23.110Z,98133.16
2022-11-06T16:31:28.068Z,98124.75
2022-11-06T16:34:44.483Z,98130.31
2022-11-06T16:37:46.863Z,98122.94
2022-11-06T16:40:51.813Z,98125.66
2022-11-06T16:44:18.221Z,98133.50
2022-11-06T16:47:24.508Z,98141.00
2022-11-06T16:50:46.118Z,98134.94
2022-11-06T16:54:10.740Z,98138.31
2022-11-06T16:57:18.815Z,98139.88
2022-11-06T17:00:22.019Z,98145.44
2022-11-06T17:03:24.692Z,98145.28
2022-11-06T17:06:29.741Z,98138.53
2022-11-06T17:09:34.546Z,98139.53
2022-11-06T17:12:36.472Z,98131.16
2022-11-06T17:15:38.676Z,98136.72
2022-11-06T17:18:40.736Z,98129.84
2022-11-06T17:21:42.800Z,98130.56
2022-11-06T17:24:44.777Z,98124.19
2022-11-06T17:27:46.917Z,98121.88
2022-11-06T17:30:49.577Z,98120.56
2022-11-06T17:33:52.877Z,98121.19
2022-11-06T17:36:55.131Z,98127.72
2022-11-06T17:39:57.660Z,98117.59
2022-11-06T17:43:00.358Z,98116.63
2022-11-06T17:46:03.470Z,98116.31
2022-11-06T17:49:06.272Z,98115.13
2022-11-06T17:52:09.407Z,98106.06
2022-11-06T17:55:11.936Z,98109.19
2022-11-06T17:58:14.505Z,98104.22
2022-11-06T18:01:17.831Z,98106.84
2022-11-06T18:04:22.366Z,98110.09
2022-11-06T18:07:24.689Z,98105.94
2022-11-06T18:10:30.450Z,98095.53
2022-11-06T18:13:33.358Z,98113.47
2022-11-06T18:16:42.293Z,98103.47
2022-11-06T18:19:45.981Z,98112.50
2022-11-06T18:22:48.799Z,98110.53
2022-11-06T18:25:55.905Z,98113.31
2022-11-06T18:28:58.607Z,98117.16
2022-11-06T18:32:01.171Z,98117.97
2022-11-06T18:35:03.664Z,98117.97
2022-11-06T18:38:05.913Z,98119.09
2022-11-06T18:41:14.400Z,98114.44
2022-11-06T18:44:18.275Z,98111.69
2022-11-06T18:47:21.117Z,98125.47
2022-11-06T18:50:23.306Z,98126.28
2022-11-06T18:53:25.396Z,98130.50
2022-11-06T18:56:27.975Z,98130.44
2022-11-06T18:59:30.722Z,98127.53
2022-11-06T19:02:33.271Z,98119.63
2022-11-06T19:05:35.434Z,98117.31
2022-11-06T19:08:38.227Z,98120.66
2022-11-06T19:11:40.522Z,98117.84
2022-11-06T19:14:43.091Z,98125.50
2022-11-06T19:17:45.299Z,98127.44
2022-11-06T19:20:47.327Z,98124.91
2022-11-06T19:23:49.554Z,98118.94
2022-11-06T19:26:51.999Z,98135.22
2022-11-06T19:29:54.477Z,98139.38
2022-11-06T19:32:56.696Z,98137.41
2022-11-06T19:36:03.137Z,98131.69
2022-11-06T19:39:07.110Z,98130.56
2022-11-06T19:42:09.477Z,98142.13
2022-11-06T19:45:12.612Z,98149.88
2022-11-06T19:48:15.763Z,98155.13
2022-11-06T19:51:18.406Z,98147.25
2022-11-06T19:54:20.685Z,98152.22
2022-11-06T19:57:28.578Z,98155.13
2022-11-06T20:00:32.177Z,98158.13
2022-11-06T20:03:34.588Z,98151.81
2022-11-06T20:06:39.344Z,98153.84
2022-11-06T20:09:41.596Z,98153.50
2022-11-06T20:12:43.688Z,98153.16
2022-11-06T20:15:46.261Z,98150.25
2022-11-06T20:18:52.880Z,98146.84
2022-11-06T20:21:55.109Z,98147.91
2022-11-06T20:24:57.514Z,98152.13
2022-11-06T20:27:59.685Z,98157.91
2022-11-06T20:31:07.308Z,98156.59
2022-11-06T20:34:09.528Z,98153.22
2022-11-06T20:37:11.925Z,98162.38
2022-11-06T20:40:14.004Z,98155.41
2022-11-06T20:43:16.461Z,98155.56
2022-11-06T20:46:21.173Z,98161.09
2022-11-06T20:49:24.291Z,98159.59
2022-11-06T20:52:26.134Z,98158.03
2022-11-06T20:55:29.579Z,98167.16
2022-11-06T20:58:32.194Z,98160.81
2022-11-06T21:01:35.307Z,98163.50
2022-11-06T21:04:37.723Z,98154.78
2022-11-06T21:07:39.894Z,98159.69
2022-11-06T21:10:42.155Z,98158.41
2022-11-06T21:13:46.512Z,98162.44
2022-11-06T21:16:49.043Z,98158.94
2022-11-06T21:19:51.490Z,98163.31
2022-11-06T21:22:53.978Z,98152.59
2022-11-06T21:25:56.168Z,98148.47
2022-11-06T21:28:58.937Z,98153.50
2022-11-06T21:32:01.242Z,98147.66
2022-11-06T21:35:03.383Z,98145.75
2022-11-06T21:38:06.738Z,98145.19
2022-11-06T21:41:11.462Z,98146.22
2022-11-06T21:44:16.113Z,98146.38
2022-11-06T21:47:21.434Z,98154.38
2022-11-06T21:50:29.941Z,98142.44
2022-11-06T21:53:51.345Z,98145.56
2022-11-06T21:56:54.745Z,98146.72
2022-11-06T21:59:57.304Z,98146.28
2022-11-06T22:02:59.363Z,98144.38
2022-11-06T22:06:08.846Z,98141.88
2022-11-06T22:09:13.040Z,98148.31
2022-11-06T22:12:14.918Z,98147.94
2022-11-06T22:15:17.024Z,98153.59
2022-11-06T22:18:18.944Z,98145.44
2022-11-06T22:21:23.091Z,98146.53
2022-11-06T22:24:25.047Z,98142.69
2022-11-06T22:27:40.712Z,98132.22
2022-11-06T22:30:43.313Z,98135.25
2022-11-06T22:33:53.262Z,98141.69
2022-11-06T22:36:55.868Z,98144.03
2022-11-06T22:39:57.853Z,98148.16
2022-11-06T22:43:00.110Z,98139.81
2022-11-06T22:46:08.464Z,98139.78
2022-11-06T22:49:10.385Z,98141.84
2022-11-06T22:52:12.303Z,98142.03
2022-11-06T22:55:14.427Z,98141.84
2022-11-06T22:58:16.721Z,98154.13
2022-11-06T23:01:21.629Z,98158.50
2022-11-06T23:04:23.416Z,98152.78
2022-11-06T23:07:25.522Z,98144.41
2022-11-06T23:10:30.640Z,98157.41
2022-11-06T23:13:32.500Z,98162.06
2022-11-06T23:16:53.057Z,98162.41
2022-11-06T23:19:56.162Z,98160.19
2022-11-06T23:22:58.510Z,98158.00
2022-11-06T23:26:10.821Z,98154.41
2022-11-06T23:29:12.916Z,98152.06
2022-11-06T23:32:14.634Z,98151.63
2022-11-06T23:35:17.231Z,98146.97
2022-11-06T23:38:19.597Z,98149.69
2022-11-06T23:41:40.184Z,98149.69
2022-11-06T23:45:00.977Z,98153.59
2022-11-06T23:48:08.284Z,98147.41
2022-11-06T23:51:10.536Z,98146.97
2022-11-06T23:54:12.340Z,98141.72
2022-11-06T23:57:14.229Z,98140.59
